Time;durP1;ratioP1;P1;durP2;ratioP2;P2;SDS_P1;SDS_P2;PMS_P1;PMS_P2;Temp;Humidity;BMP_temperature;BMP_pressure;BME280_temperature;BME280_humidity;BME280_pressure;Samples;Min_cycle;Max_cycle;Signal;HPM_P1;HPM_P2
2022/06/07 00:00:09;;;;;;;6.68;5.85;;;;;;;;;;10282986;28;20083;-61
2022/06/07 00:05:08;;;;;;;7.68;6.32;;;;;;;;;;10282535;28;20052;-60
2022/06/07 00:10:06;;;;;;;8.90;5.90;;;;;;;;;;10281876;28;20489;-61
2022/06/07 00:15:08;;;;;;;11.80;7.05;;;;;;;;;;10282613;28;20049;-61
2022/06/07 00:20:07;;;;;;;6.65;6.05;;;;;;;;;;10282572;28;20413;-61
2022/06/07 00:25:07;;;;;;;6.82;5.90;;;;;;;;;;10282084;28;20041;-62
2022/06/07 00:30:08;;;;;;;8.32;6.35;;;;;;;;;;10280921;28;20041;-61
2022/06/07 00:35:07;;;;;;;7.65;5.53;;;;;;;;;;10263111;28;20045;-60
2022/06/07 00:40:06;;;;;;;7.32;6.05;;;;;;;;;;10281482;28;20048;-60
2022/06/07 00:45:05;;;;;;;6.25;5.65;;;;;;;;;;10280232;28;20404;-60
2022/06/07 00:50:07;;;;;;;5.65;5.15;;;;;;;;;;10258460;28;20088;-60
2022/06/07 00:55:06;;;;;;;5.68;5.03;;;;;;;;;;10280622;28;20045;-60
2022/06/07 01:00:16;;;;;;;5.35;4.82;;;;;;;;;;10259731;28;20088;-60
2022/06/07 01:05:18;;;;;;;7.97;5.10;;;;;;;;;;10258038;28;20357;-60
2022/06/07 01:15:40;;;;;;;5.50;5.00;;;;;;;;;;10260524;28;20056;-61
2022/06/07 01:20:40;;;;;;;5.90;5.30;;;;;;;;;;10280247;28;20068;-61
2022/06/07 01:25:41;;;;;;;6.38;5.25;;;;;;;;;;10260664;28;20072;-60
2022/06/07 01:30:39;;;;;;;7.03;5.20;;;;;;;;;;10260420;28;20077;-60
2022/06/07 01:35:38;;;;;;;6.38;4.95;;;;;;;;;;10279330;28;20036;-60
2022/06/07 01:45:53;;;;;;;6.97;5.65;;;;;;;;;;10260029;28;20053;-60
2022/06/07 01:50:59;;;;;;;6.57;5.30;;;;;;;;;;10277733;28;20358;-61
2022/06/07 01:56:03;;;;;;;8.38;5.03;;;;;;;;;;10259726;28;20056;-60
2022/06/07 02:01:04;;;;;;;5.60;4.93;;;;;;;;;;10260144;28;20064;-61
2022/06/07 02:06:04;;;;;;;9.95;5.63;;;;;;;;;;10258824;28;20437;-62
2022/06/07 02:11:06;;;;;;;5.03;4.53;;;;;;;;;;10258217;28;20056;-61
2022/06/07 02:16:07;;;;;;;4.53;4.13;;;;;;;;;;10258887;28;20056;-61
2022/06/07 02:21:06;;;;;;;5.88;3.92;;;;;;;;;;10258334;28;20045;-61
2022/06/07 02:26:06;;;;;;;4.32;3.92;;;;;;;;;;10258387;28;20052;-61
2022/06/07 02:31:05;;;;;;;5.38;4.20;;;;;;;;;;10276205;28;20069;-62
2022/06/07 02:36:06;;;;;;;6.13;4.50;;;;;;;;;;10276176;28;20060;-61
2022/06/07 02:41:06;;;;;;;7.80;4.40;;;;;;;;;;10257823;28;20045;-62
2022/06/07 02:46:05;;;;;;;8.55;4.28;;;;;;;;;;10275646;28;20049;-62
2022/06/07 02:51:07;;;;;;;6.43;4.43;;;;;;;;;;10257671;28;20076;-62
2022/06/07 02:56:06;;;;;;;5.15;4.65;;;;;;;;;;10257172;28;20499;-62
2022/06/07 03:01:04;;;;;;;4.88;3.90;;;;;;;;;;10256634;28;20045;-62
2022/06/07 03:06:08;;;;;;;;;;;;;;;;;;10257957;28;20049;-63
2022/06/07 03:11:09;;;;;;;3.75;3.40;;;;;;;;;;10256823;28;20394;-61
2022/06/07 03:16:10;;;;;;;6.13;4.55;;;;;;;;;;10256590;28;20059;-59
2022/06/07 03:21:08;;;;;;;5.13;4.03;;;;;;;;;;10275081;28;20311;-61
2022/06/07 03:26:13;;;;;;;4.68;3.45;;;;;;;;;;10257145;28;20075;-62
2022/06/07 03:31:19;;;;;;;4.00;3.63;;;;;;;;;;10256143;28;20055;-62
2022/06/07 03:36:23;;;;;;;6.20;4.75;;;;;;;;;;10256650;28;20049;-62
2022/06/07 03:41:25;;;;;;;7.78;4.78;;;;;;;;;;10255943;28;20053;-62
2022/06/07 03:46:32;;;;;;;5.47;3.83;;;;;;;;;;10255823;28;20064;-61
2022/06/07 03:51:32;;;;;;;12.75;5.72;;;;;;;;;;10255620;28;20095;-60
2022/06/07 03:56:33;;;;;;;4.93;4.20;;;;;;;;;;10256595;28;20049;-62
2022/06/07 04:01:35;;;;;;;6.03;5.43;;;;;;;;;;10256263;28;20056;-61
2022/06/07 04:06:35;;;;;;;6.53;5.93;;;;;;;;;;10256119;28;20049;-61
2022/06/07 04:11:42;;;;;;;13.98;6.47;;;;;;;;;;10255343;28;20064;-62
2022/06/07 04:16:40;;;;;;;14.00;7.22;;;;;;;;;;10255697;28;20434;-62
2022/06/07 04:21:48;;;;;;;20.00;16.20;;;;;;;;;;10255380;28;20059;-62
2022/06/07 04:26:59;;;;;;;9.90;7.65;;;;;;;;;;10257236;28;20057;-60
2022/06/07 04:31:59;;;;;;;8.43;6.75;;;;;;;;;;10262726;28;20483;-61
2022/06/07 04:36:59;;;;;;;7.10;6.40;;;;;;;;;;10263135;28;20049;-62
2022/06/07 04:42:00;;;;;;;11.73;9.23;;;;;;;;;;10262377;28;20053;-61
2022/06/07 04:47:10;;;;;;;12.40;7.45;;;;;;;;;;10262387;28;20057;-61
2022/06/07 04:52:08;;;;;;;11.88;10.65;;;;;;;;;;10261446;28;20080;-62
2022/06/07 04:57:23;;;;;;;6.63;5.78;;;;;;;;;;10241581;28;20049;-63
2022/06/07 05:02:22;;;;;;;6.10;5.50;;;;;;;;;;10259231;28;20052;-62
2022/06/07 05:07:22;;;;;;;13.15;5.85;;;;;;;;;;10258664;28;20091;-62
2022/06/07 05:12:32;;;;;;;12.15;6.07;;;;;;;;;;10259405;28;20096;-61
2022/06/07 05:17:31;;;;;;;8.82;6.85;;;;;;;;;;10261021;28;20388;-61
2022/06/07 05:22:32;;;;;;;7.72;5.80;;;;;;;;;;10260678;28;20057;-62
2022/06/07 05:27:42;;;;;;;11.57;4.90;;;;;;;;;;10260728;28;20049;-61
2022/06/07 05:32:44;;;;;;;11.32;6.03;;;;;;;;;;10260798;28;20092;-63
2022/06/07 05:37:47;;;;;;;10.93;5.45;;;;;;;;;;10259702;28;20064;-62
2022/06/07 05:42:53;;;;;;;8.80;5.40;;;;;;;;;;10258218;28;20052;-62
2022/06/07 05:48:03;;;;;;;8.05;5.55;;;;;;;;;;10255899;28;20048;-62
2022/06/07 05:53:08;;;;;;;5.65;4.57;;;;;;;;;;10258819;28;20085;-62
2022/06/07 05:58:12;;;;;;;10.30;5.38;;;;;;;;;;10258597;28;20064;-61
2022/06/07 06:03:11;;;;;;;7.05;4.65;;;;;;;;;;10257402;28;20053;-62
2022/06/07 06:13:32;;;;;;;6.68;5.68;;;;;;;;;;10275684;28;20088;-62
2022/06/07 06:18:31;;;;;;;10.10;5.90;;;;;;;;;;10258456;28;20052;-62
2022/06/07 06:23:30;;;;;;;6.40;5.57;;;;;;;;;;10256946;28;20056;-62
2022/06/07 06:28:28;;;;;;;7.97;5.47;;;;;;;;;;10254694;28;20080;-62
2022/06/07 06:33:31;;;;;;;7.68;5.70;;;;;;;;;;10254761;28;20088;-61
2022/06/07 06:38:30;;;;;;;9.63;5.93;;;;;;;;;;10272261;28;20538;-63
2022/06/07 06:43:30;;;;;;;6.78;6.07;;;;;;;;;;10258624;28;20057;-62
2022/06/07 06:48:39;;;;;;;9.57;5.28;;;;;;;;;;10257598;28;20049;-61
2022/06/07 06:53:38;;;;;;;7.18;4.93;;;;;;;;;;10257248;28;20076;-61
2022/06/07 06:58:46;;;;;;;9.20;5.13;;;;;;;;;;10258083;28;20053;-62
2022/06/07 07:03:51;;;;;;;6.85;4.85;;;;;;;;;;10276272;28;20052;-62
2022/06/07 07:08:52;;;;;;;9.88;5.05;;;;;;;;;;10257083;28;20053;-61
2022/06/07 07:13:55;;;;;;;8.45;4.40;;;;;;;;;;10257822;28;20092;-62
2022/06/07 07:18:56;;;;;;;5.30;4.70;;;;;;;;;;10257603;28;20049;-62
2022/06/07 07:24:14;;;;;;;9.90;4.53;;;;;;;;;;10351661;28;20390;-61
2022/06/07 07:29:18;;;;;;;3.65;3.30;;;;;;;;;;10350204;28;20052;-61
2022/06/07 07:34:19;;;;;;;7.57;5.00;;;;;;;;;;10350151;28;20052;-61
2022/06/07 07:39:21;;;;;;;9.82;6.22;;;;;;;;;;10349799;28;20060;-62
2022/06/07 07:44:20;;;;;;;4.28;3.88;;;;;;;;;;10350483;28;20501;-61
2022/06/07 07:49:23;;;;;;;7.95;4.28;;;;;;;;;;10349178;28;20056;-61
2022/06/07 07:54:24;;;;;;;5.22;3.92;;;;;;;;;;10351109;28;20052;-62
2022/06/07 07:59:26;;;;;;;10.45;4.38;;;;;;;;;;10349525;28;20048;-62
2022/06/07 08:04:29;;;;;;;4.60;3.07;;;;;;;;;;10348902;28;20052;-62
2022/06/07 08:09:29;;;;;;;6.78;3.30;;;;;;;;;;10349054;28;20052;-62
2022/06/07 08:14:28;;;;;;;8.30;3.50;;;;;;;;;;10349791;28;20520;-63
2022/06/07 08:19:26;;;;;;;6.70;5.15;;;;;;;;;;10349036;28;20421;-62
2022/06/07 08:24:24;;;;;;;5.20;3.08;;;;;;;;;;10348349;28;20078;-62
2022/06/07 08:29:24;;;;;;;5.70;3.38;;;;;;;;;;10349320;28;20040;-63
2022/06/07 08:39:38;;;;;;;7.78;3.20;;;;;;;;;;10321743;28;20041;-62
2022/06/07 08:44:40;;;;;;;6.13;4.57;;;;;;;;;;10321317;28;20052;-62
2022/06/07 08:49:38;;;;;;;5.50;3.05;;;;;;;;;;10321155;28;20041;-62
2022/06/07 08:54:39;;;;;;;3.42;2.88;;;;;;;;;;10321009;28;20512;-62
2022/06/07 08:59:38;;;;;;;2.90;2.60;;;;;;;;;;10320649;28;20036;-62
2022/06/07 09:04:39;;;;;;;3.13;2.67;;;;;;;;;;10320509;28;20074;-62
2022/06/07 09:14:55;;;;;;;3.97;2.58;;;;;;;;;;10320479;28;20086;-62
2022/06/07 09:19:54;;;;;;;5.80;2.40;;;;;;;;;;10319610;28;20076;-63
2022/06/07 09:24:57;;;;;;;7.32;2.63;;;;;;;;;;10319946;28;20048;-63
2022/06/07 09:29:57;;;;;;;4.63;2.40;;;;;;;;;;10319712;28;20041;-62
2022/06/07 09:34:59;;;;;;;5.05;2.55;;;;;;;;;;10319815;28;20045;-63
2022/06/07 09:40:02;;;;;;;4.63;2.15;;;;;;;;;;10319190;28;20075;-62
2022/06/07 09:45:03;;;;;;;2.42;2.25;;;;;;;;;;10317918;28;20048;-62
2022/06/07 09:50:06;;;;;;;4.63;1.90;;;;;;;;;;10318777;28;20051;-62
2022/06/07 09:55:06;;;;;;;4.43;2.13;;;;;;;;;;10318481;28;20081;-62
2022/06/07 10:00:17;;;;;;;4.63;1.98;;;;;;;;;;10318528;28;20049;-62
2022/06/07 10:05:20;;;;;;;5.57;2.17;;;;;;;;;;10318156;28;20485;-62
2022/06/07 10:10:23;;;;;;;4.55;2.58;;;;;;;;;;10317924;28;20409;-63
2022/06/07 10:15:27;;;;;;;2.37;2.17;;;;;;;;;;10317790;28;20047;-61
2022/06/07 10:20:29;;;;;;;4.45;1.90;;;;;;;;;;10317045;28;20052;-62
2022/06/07 10:25:29;;;;;;;4.03;2.03;;;;;;;;;;10317493;28;20091;-62
2022/06/07 10:30:32;;;;;;;4.47;2.58;;;;;;;;;;10317152;28;20052;-61
2022/06/07 10:35:39;;;;;;;2.57;2.10;;;;;;;;;;10317404;28;20052;-62
2022/06/07 10:40:40;;;;;;;3.08;2.70;;;;;;;;;;10315562;28;20045;-62
2022/06/07 10:45:40;;;;;;;2.47;2.00;;;;;;;;;;10317085;28;20059;-62
2022/06/07 10:50:41;;;;;;;3.72;2.17;;;;;;;;;;10316845;28;20060;-62
2022/06/07 10:55:45;;;;;;;3.90;2.78;;;;;;;;;;10316569;28;20056;-61
2022/06/07 11:00:46;;;;;;;3.03;2.13;;;;;;;;;;10316371;28;20049;-62
2022/06/07 11:11:02;;;;;;;4.85;2.65;;;;;;;;;;10315107;28;20053;-62
2022/06/07 11:16:04;;;;;;;4.10;2.90;;;;;;;;;;10315582;28;20044;-61
2022/06/07 11:21:12;;;;;;;2.85;2.15;;;;;;;;;;10315511;28;20072;-61
2022/06/07 11:26:14;;;;;;;5.10;1.98;;;;;;;;;;10315007;28;20044;-61
2022/06/07 11:31:39;;;;;;;7.07;4.18;;;;;;;;;;10315488;28;20040;-62
2022/06/07 11:36:38;;;;;;;5.05;3.40;;;;;;;;;;10315812;28;20048;-62
2022/06/07 11:41:54;;;;;;;3.95;2.60;;;;;;;;;;10315434;28;20052;-62
2022/06/07 11:46:59;;;;;;;3.83;2.38;;;;;;;;;;10315597;28;20076;-62
2022/06/07 11:51:59;;;;;;;5.15;3.33;;;;;;;;;;10315873;28;20041;-62
2022/06/07 11:57:00;;;;;;;12.65;2.58;;;;;;;;;;10315649;28;20045;-62
2022/06/07 12:02:19;;;;;;;4.88;3.55;;;;;;;;;;10315641;28;20092;-62
2022/06/07 12:07:21;;;;;;;9.02;3.90;;;;;;;;;;10312682;28;20513;-62
2022/06/07 12:12:22;;;;;;;7.82;3.22;;;;;;;;;;10323210;28;20547;-61
2022/06/07 12:17:24;;;;;;;2.55;2.20;;;;;;;;;;10323041;28;20049;-62
2022/06/07 12:22:25;;;;;;;2.72;2.50;;;;;;;;;;10321874;28;20509;-62
2022/06/07 12:27:25;;;;;;;5.13;2.95;;;;;;;;;;10322707;28;20052;-62
2022/06/07 12:32:26;;;;;;;5.50;2.15;;;;;;;;;;10322384;28;20037;-61
2022/06/07 12:37:26;;;;;;;13.65;3.42;;;;;;;;;;10322260;28;20075;-61
2022/06/07 12:42:27;;;;;;;2.55;1.85;;;;;;;;;;10321781;28;20084;-61
2022/06/07 12:47:26;;;;;;;2.40;1.90;;;;;;;;;;10321864;28;20040;-62
2022/06/07 12:52:27;;;;;;;3.95;2.38;;;;;;;;;;10321938;28;20075;-61
2022/06/07 12:57:27;;;;;;;3.63;2.42;;;;;;;;;;10321553;28;20044;-62
2022/06/07 13:02:27;;;;;;;6.70;3.38;;;;;;;;;;10321520;28;20517;-62
2022/06/07 13:07:28;;;;;;;5.80;2.50;;;;;;;;;;10321679;28;20048;-63
2022/06/07 13:12:44;;;;;;;2.13;1.92;;;;;;;;;;10321136;28;20044;-62
2022/06/07 13:17:55;;;;;;;6.57;2.50;;;;;;;;;;10320457;28;20045;-63
2022/06/07 13:22:55;;;;;;;2.65;2.45;;;;;;;;;;10319457;28;20579;-64
2022/06/07 13:28:01;;;;;;;4.05;2.90;;;;;;;;;;10320550;28;20055;-63
2022/06/07 13:33:16;;;;;;;3.95;3.05;;;;;;;;;;10319192;28;20078;-62
2022/06/07 13:38:24;;;;;;;10.60;3.58;;;;;;;;;;10318206;28;20052;-63
2022/06/07 13:43:23;;;;;;;4.75;2.90;;;;;;;;;;10319623;28;20092;-63
2022/06/07 13:53:21;;;;;;;6.45;3.53;;;;;;;;;;10319577;28;20044;-62
2022/06/07 13:53:47;;;;;;;5.07;3.15;;;;;;;;;;10319251;28;20083;-63
2022/06/07 13:58:50;;;;;;;5.32;2.67;;;;;;;;;;10319356;28;20090;-63
2022/06/07 14:03:50;;;;;;;3.83;2.70;;;;;;;;;;10319022;28;20099;-62
2022/06/07 14:08:50;;;;;;;7.47;3.00;;;;;;;;;;10318821;28;20052;-63
2022/06/07 14:13:48;;;;;;;3.05;2.50;;;;;;;;;;10318589;28;20051;-62
2022/06/07 14:18:47;;;;;;;8.45;3.60;;;;;;;;;;10318338;28;20055;-62
2022/06/07 14:23:45;;;;;;;6.78;2.80;;;;;;;;;;10317252;28;20086;-63
2022/06/07 14:28:46;;;;;;;8.80;4.90;;;;;;;;;;10317219;28;20068;-61
2022/06/07 14:33:46;;;;;;;5.57;3.85;;;;;;;;;;10317985;28;20080;-63
2022/06/07 14:38:46;;;;;;;5.07;4.10;;;;;;;;;;10317717;28;20110;-62
2022/06/07 14:43:46;;;;;;;10.00;5.22;;;;;;;;;;10317710;28;20072;-63
2022/06/07 14:48:47;;;;;;;7.45;3.22;;;;;;;;;;10317720;28;20051;-62
2022/06/07 14:53:46;;;;;;;8.93;6.60;;;;;;;;;;10317473;28;20059;-62
2022/06/07 14:58:47;;;;;;;8.00;5.00;;;;;;;;;;10315437;28;20421;-63
2022/06/07 15:03:46;;;;;;;5.53;3.90;;;;;;;;;;10317361;28;20083;-63
2022/06/07 15:08:45;;;;;;;7.80;5.00;;;;;;;;;;10317230;28;20047;-62
2022/06/07 15:13:44;;;;;;;4.30;2.50;;;;;;;;;;10316058;28;20048;-62
2022/06/07 15:18:45;;;;;;;5.10;4.63;;;;;;;;;;10316888;28;20086;-63
2022/06/07 15:23:43;;;;;;;5.35;3.92;;;;;;;;;;10314789;28;20493;-63
2022/06/07 15:28:42;;;;;;;6.55;3.03;;;;;;;;;;10315737;28;20076;-62
2022/06/07 15:33:41;;;;;;;4.75;4.35;;;;;;;;;;10316767;28;20405;-63
2022/06/07 15:38:43;;;;;;;8.23;6.30;;;;;;;;;;10316343;28;20075;-63
2022/06/07 15:43:41;;;;;;;9.48;6.03;;;;;;;;;;10320689;28;20076;-63
2022/06/07 15:48:44;;;;;;;14.80;9.30;;;;;;;;;;10324447;28;20087;-63
2022/06/07 15:53:43;;;;;;;4.70;3.58;;;;;;;;;;10324394;28;20041;-63
2022/06/07 16:03:59;;;;;;;6.38;4.13;;;;;;;;;;10323888;28;20349;-63
2022/06/07 16:09:00;;;;;;;4.57;3.92;;;;;;;;;;10323769;28;20109;-62
2022/06/07 16:13:59;;;;;;;7.43;3.92;;;;;;;;;;10323651;28;20049;-63
2022/06/07 16:18:58;;;;;;;7.38;3.35;;;;;;;;;;10323364;28;20044;-62
2022/06/07 16:23:57;;;;;;;7.15;5.20;;;;;;;;;;10321977;28;20095;-62
2022/06/07 16:34:12;;;;;;;5.07;3.80;;;;;;;;;;10320516;28;20049;-62
2022/06/07 16:39:11;;;;;;;10.32;2.75;;;;;;;;;;10321221;28;20047;-62
2022/06/07 16:44:12;;;;;;;6.85;3.33;;;;;;;;;;10321766;28;20080;-62
2022/06/07 16:49:12;;;;;;;3.55;2.53;;;;;;;;;;10321402;28;20049;-62
2022/06/07 16:54:11;;;;;;;5.68;2.58;;;;;;;;;;10320972;28;20052;-62
2022/06/07 16:59:09;;;;;;;3.35;2.67;;;;;;;;;;10320836;28;20049;-62
2022/06/07 17:04:09;;;;;;;3.65;2.15;;;;;;;;;;10320708;28;20083;-61
2022/06/07 17:09:08;;;;;;;7.07;2.58;;;;;;;;;;10320401;28;20049;-61
2022/06/07 17:14:07;;;;;;;11.35;2.95;;;;;;;;;;10320401;28;20068;-61
2022/06/07 17:19:06;;;;;;;5.88;2.65;;;;;;;;;;10319499;28;20047;-61
2022/06/07 17:24:07;;;;;;;5.28;2.53;;;;;;;;;;10319876;28;20474;-60
2022/06/07 17:29:07;;;;;;;5.90;3.17;;;;;;;;;;10317691;28;20158;-61
2022/06/07 17:34:06;;;;;;;4.75;2.25;;;;;;;;;;10295592;28;20060;-61
2022/06/07 17:39:05;;;;;;;4.85;2.50;;;;;;;;;;10293289;28;20517;-62
2022/06/07 17:44:05;;;;;;;10.10;2.70;;;;;;;;;;10298625;28;20068;-61
2022/06/07 17:49:03;;;;;;;6.40;3.88;;;;;;;;;;10292197;28;20075;-59
2022/06/07 17:54:02;;;;;;;3.83;2.20;;;;;;;;;;10293282;28;20073;-60
2022/06/07 17:59:00;;;;;;;4.90;2.97;;;;;;;;;;10280494;28;20501;-61
2022/06/07 18:04:00;;;;;;;5.10;3.40;;;;;;;;;;10292384;28;20069;-60
2022/06/07 18:08:58;;;;;;;9.50;3.33;;;;;;;;;;10281114;28;20068;-60
2022/06/07 18:13:58;;;;;;;9.48;3.53;;;;;;;;;;10280053;28;20069;-60
2022/06/07 18:18:56;;;;;;;6.30;3.67;;;;;;;;;;10296921;28;20473;-62
2022/06/07 18:23:56;;;;;;;14.05;4.07;;;;;;;;;;10282673;28;20086;-61
2022/06/07 18:28:54;;;;;;;10.65;3.58;;;;;;;;;;10296197;28;20065;-61
2022/06/07 18:33:53;;;;;;;9.15;3.50;;;;;;;;;;10291416;28;20079;-62
2022/06/07 18:38:52;;;;;;;11.07;3.53;;;;;;;;;;10292326;28;20521;-61
2022/06/07 18:43:51;;;;;;;10.88;3.40;;;;;;;;;;10295479;28;20524;-61
2022/06/07 18:48:50;;;;;;;14.07;3.72;;;;;;;;;;10279375;28;20041;-62
2022/06/07 18:53:48;;;;;;;5.18;3.38;;;;;;;;;;10275838;28;20429;-61
2022/06/07 18:58:47;;;;;;;5.82;3.65;;;;;;;;;;10290791;28;20048;-61
2022/06/07 19:03:47;;;;;;;7.28;4.03;;;;;;;;;;10284075;28;20045;-61
2022/06/07 19:08:46;;;;;;;6.65;4.03;;;;;;;;;;10303324;28;20044;-61
2022/06/07 19:13:45;;;;;;;8.13;3.95;;;;;;;;;;10281861;28;20052;-62
2022/06/07 19:18:49;;;;;;;4.93;3.60;;;;;;;;;;10275422;28;20041;-62
2022/06/07 19:23:49;;;;;;;7.30;4.13;;;;;;;;;;10279116;28;20077;-61
2022/06/07 19:28:47;;;;;;;9.07;5.75;;;;;;;;;;10275627;28;20041;-61
2022/06/07 19:33:46;;;;;;;9.45;3.95;;;;;;;;;;10273869;28;20056;-62
2022/06/07 19:38:45;;;;;;;8.27;4.88;;;;;;;;;;10282442;28;20490;-62
2022/06/07 19:43:45;;;;;;;7.90;4.68;;;;;;;;;;10306988;28;20076;-61
2022/06/07 19:48:44;;;;;;;6.25;3.60;;;;;;;;;;10281794;28;20513;-62
2022/06/07 19:53:44;;;;;;;8.15;3.65;;;;;;;;;;10274789;28;20071;-62
2022/06/07 19:58:46;;;;;;;6.07;3.80;;;;;;;;;;10275334;28;20049;-61
2022/06/07 20:03:45;;;;;;;3.67;2.97;;;;;;;;;;10274430;28;20076;-62
2022/06/07 20:08:45;;;;;;;4.65;3.13;;;;;;;;;;10269124;28;20091;-62
2022/06/07 20:13:45;;;;;;;5.78;2.97;;;;;;;;;;10276122;28;20060;-61
2022/06/07 20:18:44;;;;;;;10.95;3.40;;;;;;;;;;10271916;28;20293;-62
2022/06/07 20:23:43;;;;;;;6.47;4.18;;;;;;;;;;10282693;28;20080;-62
2022/06/07 20:28:42;;;;;;;6.20;2.92;;;;;;;;;;10276984;28;20076;-62
2022/06/07 20:33:42;;;;;;;5.85;2.92;;;;;;;;;;10290046;28;20065;-62
2022/06/07 20:38:41;;;;;;;4.20;2.47;;;;;;;;;;10298857;28;20087;-61
2022/06/07 20:43:39;;;;;;;4.07;3.25;;;;;;;;;;10322229;28;20063;-62
2022/06/07 20:48:38;;;;;;;2.70;2.50;;;;;;;;;;10319732;28;20083;-62
2022/06/07 20:53:37;;;;;;;3.50;3.17;;;;;;;;;;10311889;28;20394;-62
2022/06/07 20:58:36;;;;;;;12.30;3.85;;;;;;;;;;10321649;28;20048;-61
2022/06/07 21:03:34;;;;;;;3.15;2.80;;;;;;;;;;10321550;28;20040;-61
2022/06/07 21:08:33;;;;;;;7.07;4.70;;;;;;;;;;10320342;28;20064;-62
2022/06/07 21:13:32;;;;;;;5.60;3.20;;;;;;;;;;10321168;28;20040;-62
2022/06/07 21:18:31;;;;;;;3.38;2.78;;;;;;;;;;10321254;28;20071;-62
2022/06/07 21:23:33;;;;;;;7.72;3.25;;;;;;;;;;10319927;28;20087;-62
2022/06/07 21:28:33;;;;;;;3.75;2.97;;;;;;;;;;10320560;28;20083;-61
2022/06/07 21:33:31;;;;;;;3.78;3.08;;;;;;;;;;10320317;28;20044;-61
2022/06/07 21:38:29;;;;;;;4.82;3.78;;;;;;;;;;10307484;28;20045;-61
2022/06/07 21:43:27;;;;;;;3.55;3.00;;;;;;;;;;10279325;28;20072;-62
2022/06/07 21:48:27;;;;;;;3.15;2.90;;;;;;;;;;10279302;28;20116;-62
2022/06/07 21:53:26;;;;;;;4.50;3.22;;;;;;;;;;10278715;28;20032;-62
2022/06/07 21:58:24;;;;;;;4.38;3.17;;;;;;;;;;10292158;28;20075;-62
2022/06/07 22:03:23;;;;;;;3.90;2.92;;;;;;;;;;10278620;28;20033;-62
2022/06/07 22:08:24;;;;;;;4.85;3.22;;;;;;;;;;10276338;28;20562;-61
2022/06/07 22:13:23;;;;;;;4.57;2.97;;;;;;;;;;10280167;28;20486;-61
2022/06/07 22:18:22;;;;;;;3.63;3.05;;;;;;;;;;10287919;28;20071;-61
2022/06/07 22:23:20;;;;;;;3.00;2.65;;;;;;;;;;10276641;28;20041;-61
2022/06/07 22:28:20;;;;;;;8.13;3.83;;;;;;;;;;10277449;28;20087;-61
2022/06/07 22:33:19;;;;;;;4.68;3.17;;;;;;;;;;10276494;28;20057;-62
2022/06/07 22:38:17;;;;;;;5.25;3.15;;;;;;;;;;10277404;28;20520;-61
2022/06/07 22:43:16;;;;;;;5.55;3.95;;;;;;;;;;10276903;28;20041;-61
2022/06/07 22:48:16;;;;;;;12.90;5.43;;;;;;;;;;10275491;28;20536;-61
2022/06/07 22:53:18;;;;;;;9.35;5.35;;;;;;;;;;10276117;28;20151;-61
2022/06/07 22:58:18;;;;;;;8.35;5.68;;;;;;;;;;10276391;28;20482;-62
2022/06/07 23:03:20;;;;;;;9.18;6.30;;;;;;;;;;10275543;28;20045;-62
2022/06/07 23:08:18;;;;;;;7.53;5.88;;;;;;;;;;10289722;28;20075;-61
2022/06/07 23:13:17;;;;;;;7.82;6.57;;;;;;;;;;10276266;28;20045;-61
2022/06/07 23:18:15;;;;;;;9.05;7.00;;;;;;;;;;10275795;28;20049;-61
2022/06/07 23:23:15;;;;;;;8.00;6.63;;;;;;;;;;10274887;28;20537;-62
2022/06/07 23:28:13;;;;;;;9.45;6.70;;;;;;;;;;10275587;28;20072;-61
2022/06/07 23:33:12;;;;;;;8.45;7.13;;;;;;;;;;10275460;28;20426;-61
2022/06/07 23:38:10;;;;;;;12.00;7.65;;;;;;;;;;10275740;28;20494;-61
2022/06/07 23:43:10;;;;;;;10.82;7.28;;;;;;;;;;10275342;28;20405;-61
2022/06/07 23:48:10;;;;;;;11.57;7.68;;;;;;;;;;10275550;28;20077;-62
2022/06/07 23:53:10;;;;;;;11.00;7.50;;;;;;;;;;10275446;28;20486;-61
2022/06/07 23:58:10;;;;;;;12.98;7.45;;;;;;;;;;10274125;28;20041;-61
